Time;durP1;ratioP1;P1;durP2;ratioP2;P2;SDS_P1;SDS_P2;PMS_P1;PMS_P2;Temp;Humidity;BMP_temperature;BMP_pressure;BME280_temperature;BME280_humidity;BME280_pressure;Samples;Min_cycle;Max_cycle;Signal;HPM_P1;HPM_P2
2021/01/04 00:02:50;;;;;;;16.45;9.15;;;;;;;9.96;72.60;102381.81;1663626;86;21157;-47
2021/01/04 00:05:45;;;;;;;15.35;9.13;;;;;;;9.96;72.55;102389.61;1653514;86;21188;-47
2021/01/04 00:08:46;;;;;;;15.65;8.18;;;;;;;9.89;72.79;102388.27;1662331;86;22223;-46
2021/01/04 00:11:37;;;;;;;22.13;10.95;;;;;;;9.90;72.69;102387.39;1653513;86;21781;-47
2021/01/04 00:14:20;;;;;;;16.53;9.20;;;;;;;9.87;72.72;102384.79;1663744;86;21224;-47
2021/01/04 00:17:05;;;;;;;18.50;9.28;;;;;;;9.88;72.86;102387.81;1658940;86;21237;-47
2021/01/04 00:19:51;;;;;;;18.57;9.38;;;;;;;9.87;72.87;102393.89;1692670;85;21311;-46
2021/01/04 00:22:30;;;;;;;19.92;10.38;;;;;;;9.88;72.88;102396.91;1700587;81;21223;-46
2021/01/04 00:25:16;;;;;;;14.95;9.00;;;;;;;9.88;72.86;102394.31;1709564;84;21179;-47
2021/01/04 00:27:51;;;;;;;19.02;9.50;;;;;;;9.87;72.82;102395.19;1770241;81;21181;-47
2021/01/04 00:30:33;;;;;;;17.32;9.40;;;;;;;9.87;72.92;102388.69;1739057;82;21157;-47
2021/01/04 00:33:16;;;;;;;18.50;10.15;;;;;;;9.87;72.93;102393.89;1760197;81;21169;-47
2021/01/04 00:35:51;;;;;;;18.27;10.25;;;;;;;9.87;72.89;102395.19;1768377;81;21315;-47
2021/01/04 00:38:41;;;;;;;18.32;9.45;;;;;;;9.85;72.82;102390.83;1775966;81;21161;-47
2021/01/04 00:41:22;;;;;;;20.97;10.30;;;;;;;9.85;72.97;102388.23;1768872;81;21596;-47
2021/01/04 00:43:56;;;;;;;15.20;8.80;;;;;;;9.84;72.91;102391.70;1777144;81;21181;-47
2021/01/04 00:46:40;;;;;;;13.38;10.25;;;;;;;9.74;73.26;102392.50;1764545;81;21157;-47
2021/01/04 00:49:31;;;;;;;15.23;9.30;;;;;;;9.84;73.07;102386.93;1778003;80;21164;-47
2021/01/04 00:52:25;;;;;;;19.02;10.63;;;;;;;9.91;72.75;102386.13;1771852;81;21602;-46
2021/01/04 00:55:29;;;;;;;16.57;9.88;;;;;;;9.90;72.82;102387.39;1773121;81;21140;-46
2021/01/04 00:58:23;;;;;;;18.48;10.68;;;;;;;9.85;72.77;102392.13;1755619;81;21165;-46
2021/01/04 01:00:56;;;;;;;18.50;9.73;;;;;;;9.82;72.88;102392.13;1756910;81;21133;-46
2021/01/04 01:03:52;;;;;;;22.60;10.10;;;;;;;9.83;72.89;102391.25;1669537;83;21621;-46
2021/01/04 01:06:55;;;;;;;25.55;9.88;;;;;;;9.81;72.85;102387.77;1669410;83;21156;-46
2021/01/04 01:09:32;;;;;;;16.55;9.15;;;;;;;9.87;73.07;102384.79;1771527;79;23069;-46
2021/01/04 01:12:23;;;;;;;22.98;10.60;;;;;;;9.81;72.94;102382.57;1733003;82;21176;-47
2021/01/04 01:15:17;;;;;;;19.05;9.90;;;;;;;9.79;72.99;102381.69;1731695;82;21175;-46
2021/01/04 01:18:26;;;;;;;15.45;8.78;;;;;;;9.77;73.02;102383.83;1740952;82;21604;-47
2021/01/04 01:20:55;;;;;;;17.02;9.90;;;;;;;9.77;73.12;102389.03;1732808;82;21109;-46
2021/01/04 01:23:25;;;;;;;18.15;10.30;;;;;;;9.75;73.12;102392.93;1741043;82;21239;-46
2021/01/04 01:26:14;;;;;;;13.65;9.53;;;;;;;9.75;73.11;102381.23;1659796;85;21201;-46
2021/01/04 01:29:12;;;;;;;13.68;9.40;;;;;;;9.76;73.17;102373.89;1657693;86;21284;-46
2021/01/04 01:32:01;;;;;;;14.50;9.65;;;;;;;9.78;73.20;102370.87;1659017;86;21184;-47
2021/01/04 01:34:57;;;;;;;16.93;9.65;;;;;;;9.79;73.18;102366.09;1653020;86;21181;-46
2021/01/04 01:37:53;;;;;;;18.48;9.28;;;;;;;9.87;73.07;102362.69;1811426;79;23052;-47
2021/01/04 01:40:44;;;;;;;15.30;9.33;;;;;;;9.81;72.92;102358.30;1815934;78;21316;-46
2021/01/04 01:43:37;;;;;;;21.97;10.53;;;;;;;9.80;72.94;102357.45;1808551;78;21148;-47
2021/01/04 01:46:22;;;;;;;18.35;10.63;;;;;;;9.78;73.04;102357.88;1727783;82;21722;-46
2021/01/04 01:49:38;;;;;;;20.30;10.82;;;;;;;9.84;73.08;102351.41;1766900;79;23048;-48
2021/01/04 01:52:27;;;;;;;19.80;9.48;;;;;;;9.80;72.89;102353.97;1745031;82;21416;-47
2021/01/04 01:55:34;;;;;;;13.55;9.90;;;;;;;9.76;72.93;102352.22;1735815;82;21326;-47
2021/01/04 01:58:26;;;;;;;17.10;10.25;;;;;;;9.71;73.09;102354.77;1738411;82;21168;-47
2021/01/04 02:00:59;;;;;;;18.45;10.85;;;;;;;9.68;73.20;102356.49;1735734;82;21105;-47
2021/01/04 02:04:02;;;;;;;21.15;11.00;;;;;;;9.67;73.30;102350.84;1701016;83;21159;-46
2021/01/04 02:07:24;;;;;;;19.97;11.83;;;;;;;9.72;73.42;102350.03;1756396;79;28625;-46
2021/01/04 02:09:58;;;;;;;16.82;10.72;;;;;;;9.72;73.42;102350.03;1741045;82;21611;-46
2021/01/04 02:13:23;;;;;;;18.07;11.33;;;;;;;9.77;73.10;102349.61;1677863;84;21193;-47
2021/01/04 02:16:07;;;;;;;14.60;9.50;;;;;;;9.76;73.08;102347.89;1685121;84;21153;-47
2021/01/04 02:19:28;;;;;;;19.15;11.30;;;;;;;9.72;73.34;102350.03;1679912;84;21192;-46
2021/01/04 02:22:38;;;;;;;18.00;10.93;;;;;;;9.71;73.37;102340.48;1675981;84;21160;-47
2021/01/04 02:25:19;;;;;;;21.40;11.50;;;;;;;9.75;73.34;102336.16;1769744;79;23389;-46
2021/01/04 02:27:50;;;;;;;19.40;11.25;;;;;;;9.70;73.22;102341.36;1736270;82;21156;-46
2021/01/04 02:30:19;;;;;;;15.35;10.60;;;;;;;9.68;73.32;102334.40;1742337;82;21113;-46
2021/01/04 02:32:48;;;;;;;21.82;11.75;;;;;;;9.66;73.42;102337.00;1737227;82;21140;-46
2021/01/04 02:35:16;;;;;;;20.32;11.60;;;;;;;9.64;73.40;102329.58;1734686;82;21612;-47
2021/01/04 02:37:45;;;;;;;26.17;11.60;;;;;;;9.63;73.46;102329.16;1744227;82;21144;-46
2021/01/04 02:40:14;;;;;;;22.10;11.97;;;;;;;9.65;73.47;102331.34;1723993;82;21184;-47
2021/01/04 02:42:44;;;;;;;18.35;10.85;;;;;;;9.67;73.43;102299.73;1740498;82;21581;-46
2021/01/04 02:45:20;;;;;;;18.80;11.87;;;;;;;9.66;73.44;102312.30;1735663;82;21121;-46
2021/01/04 02:48:43;;;;;;;21.20;11.08;;;;;;;9.64;73.43;102301.00;1739824;82;21153;-47
2021/01/04 02:51:25;;;;;;;22.20;10.85;;;;;;;9.63;73.49;102307.07;1741897;82;21743;-47
2021/01/04 02:54:02;;;;;;;22.02;11.50;;;;;;;9.61;73.43;102302.30;1747928;82;21140;-46
2021/01/04 02:56:39;;;;;;;18.12;9.90;;;;;;;9.60;73.45;102307.03;1738128;82;21168;-46
2021/01/04 02:59:44;;;;;;;13.20;8.88;;;;;;;9.58;73.50;102293.16;1738103;82;21160;-47
2021/01/04 03:02:23;;;;;;;15.85;9.78;;;;;;;9.57;73.54;102297.94;1738370;82;21164;-46
2021/01/04 03:04:58;;;;;;;21.15;9.20;;;;;;;9.59;73.62;102304.02;1767091;79;22913;-47
2021/01/04 03:07:30;;;;;;;16.97;10.15;;;;;;;9.55;73.72;102297.48;1737493;81;21137;-46
2021/01/04 03:09:58;;;;;;;;;;;;;;;9.54;73.88;102296.59;1744270;82;21132;-46
2021/01/04 03:12:32;;;;;;;19.98;10.95;;;;;;;9.54;73.94;102301.80;1741128;82;20221;-47
2021/01/04 03:15:26;;;;;;;20.50;11.10;;;;;;;9.57;73.88;102309.62;1740267;82;21144;-46
2021/01/04 03:18:20;;;;;;;20.90;10.55;;;;;;;9.58;73.91;102316.55;1741038;82;21161;-46
2021/01/04 03:20:48;;;;;;;19.42;9.58;;;;;;;9.61;73.92;102306.19;1659936;86;21697;-47
2021/01/04 03:23:17;;;;;;;18.48;10.23;;;;;;;9.61;74.04;102304.02;1606759;89;21239;-46
2021/01/04 03:25:57;;;;;;;13.60;8.60;;;;;;;9.63;73.94;102299.27;1631501;87;21187;-47
2021/01/04 03:28:30;;;;;;;23.05;10.08;;;;;;;9.66;73.97;102295.41;1659140;86;21176;-46
2021/01/04 03:30:58;;;;;;;23.62;10.72;;;;;;;9.72;73.86;102304.55;1650875;86;21846;-47
2021/01/04 03:33:27;;;;;;;18.57;9.35;;;;;;;9.78;73.78;102308.91;1654808;86;21160;-47
2021/01/04 03:35:55;;;;;;;24.55;9.43;;;;;;;9.80;73.74;102305.45;1657057;86;22063;-47
2021/01/04 03:38:23;;;;;;;20.25;9.33;;;;;;;9.83;73.64;102301.98;1657732;86;21633;-47
2021/01/04 03:40:52;;;;;;;20.27;10.75;;;;;;;9.84;73.51;102299.41;1602311;89;21247;-47
2021/01/04 03:43:20;;;;;;;17.37;8.58;;;;;;;9.84;73.46;102300.72;1654076;85;21699;-46
2021/01/04 03:45:49;;;;;;;17.07;8.58;;;;;;;9.87;73.49;102297.69;1653916;86;21217;-47
2021/01/04 03:48:18;;;;;;;17.15;9.30;;;;;;;9.89;73.33;102299.45;1655075;86;21213;-47
2021/01/04 03:50:46;;;;;;;21.87;10.35;;;;;;;9.88;73.24;102295.52;1603079;89;21364;-47
2021/01/04 03:53:14;;;;;;;27.20;10.63;;;;;;;9.88;73.24;102304.61;1656781;86;21145;-47
2021/01/04 03:55:44;;;;;;;21.48;9.58;;;;;;;9.88;73.30;102302.89;1656807;86;21289;-47
2021/01/04 03:58:12;;;;;;;22.00;9.23;;;;;;;9.91;73.36;102302.92;1650507;85;21206;-46
2021/01/04 04:00:41;;;;;;;20.05;10.25;;;;;;;9.93;73.25;102305.52;1695036;84;21722;-46
2021/01/04 04:03:09;;;;;;;32.50;10.35;;;;;;;9.95;73.22;102296.00;1698890;83;21188;-47
2021/01/04 04:05:37;;;;;;;20.40;9.83;;;;;;;9.97;73.10;102291.67;1697037;84;21179;-47
2021/01/04 04:08:06;;;;;;;15.53;9.08;;;;;;;9.96;72.98;102290.80;1693996;84;21192;-47
2021/01/04 04:10:35;;;;;;;17.05;9.15;;;;;;;9.95;72.98;102296.00;1674575;85;21378;-47
2021/01/04 04:13:04;;;;;;;16.80;9.93;;;;;;;9.93;73.02;102295.13;1701431;84;21179;-47
2021/01/04 04:15:33;;;;;;;19.00;8.98;;;;;;;9.94;73.12;102296.84;1689757;84;21164;-47
2021/01/04 04:18:01;;;;;;;22.93;10.25;;;;;;;9.96;73.01;102293.82;1660057;86;21716;-47
2021/01/04 04:20:30;;;;;;;21.73;10.32;;;;;;;9.94;73.03;102296.42;1668797;85;21187;-47
2021/01/04 04:22:59;;;;;;;20.40;9.88;;;;;;;9.96;73.09;102296.42;1677910;85;21144;-46
2021/01/04 04:25:28;;;;;;;17.92;9.78;;;;;;;9.97;73.03;102299.48;1677893;85;21164;-46
2021/01/04 04:27:57;;;;;;;20.25;10.20;;;;;;;9.95;72.94;102301.20;1677988;85;21160;-47
2021/01/04 04:30:25;;;;;;;20.92;10.23;;;;;;;9.95;72.86;102306.41;1681314;85;21176;-47
2021/01/04 04:32:59;;;;;;;19.20;9.05;;;;;;;9.93;72.98;102305.52;1672738;85;21171;-46
2021/01/04 04:35:28;;;;;;;20.10;9.95;;;;;;;9.95;73.02;102303.80;1689729;84;21585;-47
2021/01/04 04:37:58;;;;;;;17.82;10.98;;;;;;;9.95;73.06;102307.70;1697857;84;21168;-47
2021/01/04 04:40:31;;;;;;;25.02;10.45;;;;;;;9.96;73.12;102310.72;1696115;84;21754;-46
2021/01/04 04:43:14;;;;;;;23.77;11.85;;;;;;;9.96;73.00;102314.20;1699582;84;21168;-47
2021/01/04 04:45:43;;;;;;;22.82;11.73;;;;;;;9.95;73.04;102312.90;1693422;84;21157;-46
2021/01/04 04:48:45;;;;;;;22.30;10.93;;;;;;;9.96;73.27;102315.92;1674044;85;21299;-46
2021/01/04 04:51:27;;;;;;;20.02;10.40;;;;;;;10.00;73.19;102313.77;1642028;87;21209;-47
2021/01/04 04:54:14;;;;;;;;;;;;;;;10.03;73.04;102313.39;1653908;87;21200;-46
2021/01/04 04:57:35;;;;;;;23.40;10.53;;;;;;;10.04;72.90;102300.80;1650076;87;20229;-47
2021/01/04 05:00:40;;;;;;;25.77;11.97;;;;;;;10.01;72.96;102294.73;1756062;79;28384;-46
2021/01/04 05:03:35;;;;;;;22.55;10.90;;;;;;;9.98;73.10;102301.20;1699494;83;21404;-46
2021/01/04 05:06:14;;;;;;;19.70;9.98;;;;;;;10.07;72.93;102309.94;1697039;83;21212;-46
2021/01/04 05:09:18;;;;;;;26.62;11.60;;;;;;;10.07;72.82;102297.36;1666504;85;21192;-47
2021/01/04 05:11:52;;;;;;;20.90;11.12;;;;;;;10.03;72.80;102302.11;1699924;83;21124;-46
2021/01/04 05:14:26;;;;;;;20.52;11.57;;;;;;;10.03;72.93;102309.48;1771527;79;22943;-46
2021/01/04 05:17:16;;;;;;;18.23;10.95;;;;;;;9.98;73.00;102309.00;1738486;82;21581;-47
2021/01/04 05:20:12;;;;;;;25.10;12.13;;;;;;;9.98;73.00;102301.20;1687569;84;21167;-46
2021/01/04 05:23:31;;;;;;;25.60;11.80;;;;;;;10.03;72.97;102302.11;1811443;79;22608;-47
2021/01/04 05:26:17;;;;;;;25.10;11.53;;;;;;;9.98;72.93;102296.00;1725976;83;21191;-46
2021/01/04 05:29:19;;;;;;;21.30;10.98;;;;;;;9.96;73.01;102300.32;1737394;82;21159;-46
2021/01/04 05:32:25;;;;;;;28.55;13.55;;;;;;;9.95;72.98;102311.60;1737345;82;21184;-46
2021/01/04 05:34:57;;;;;;;24.07;11.95;;;;;;;9.93;72.99;102305.52;1653671;86;21663;-46
2021/01/04 05:38:13;;;;;;;27.48;10.95;;;;;;;9.92;73.01;102312.87;1706754;83;21214;-46
2021/01/04 05:41:23;;;;;;;26.07;12.20;;;;;;;9.92;73.06;102301.17;1685648;83;21590;-46
2021/01/04 05:44:41;;;;;;;25.62;12.33;;;;;;;9.95;73.05;102309.00;1771578;79;22970;-47
2021/01/04 05:47:33;;;;;;;23.50;11.65;;;;;;;9.91;73.08;102309.42;1742549;82;21136;-46
2021/01/04 05:50:33;;;;;;;22.55;11.38;;;;;;;9.91;73.13;102310.72;1672369;84;21239;-46
2021/01/04 05:53:08;;;;;;;23.02;12.23;;;;;;;9.99;73.14;102310.75;1771275;79;22835;-46
2021/01/04 05:55:36;;;;;;;21.62;11.48;;;;;;;9.97;73.06;102309.88;1739130;82;21153;-46
2021/01/04 05:58:18;;;;;;;30.23;12.60;;;;;;;9.99;72.99;102306.85;1735435;82;21143;-46
2021/01/04 06:00:46;;;;;;;21.90;10.98;;;;;;;10.00;72.96;102300.77;1740406;82;21149;-46
2021/01/04 06:03:18;;;;;;;22.13;11.78;;;;;;;10.01;72.91;102306.43;1734375;82;21144;-47
2021/01/04 06:05:47;;;;;;;23.52;12.15;;;;;;;10.02;72.86;102306.85;1681919;84;21179;-46
2021/01/04 06:08:26;;;;;;;22.73;11.48;;;;;;;9.99;73.01;102305.55;1673920;85;21169;-46
2021/01/04 06:11:11;;;;;;;30.25;12.18;;;;;;;10.03;72.79;102313.39;1688426;84;21758;-47
2021/01/04 06:13:43;;;;;;;26.33;12.18;;;;;;;10.03;72.75;102302.11;1688063;84;21144;-46
2021/01/04 06:16:16;;;;;;;19.98;11.05;;;;;;;10.03;72.80;102304.70;1688607;84;21195;-47
2021/01/04 06:18:54;;;;;;;21.25;12.03;;;;;;;10.07;72.80;102303.86;1770729;79;23084;-47
2021/01/04 06:21:48;;;;;;;25.88;12.60;;;;;;;10.03;72.79;102306.01;1713725;83;21727;-47
2021/01/04 06:24:28;;;;;;;27.73;13.88;;;;;;;10.03;72.69;102303.41;1711114;83;21332;-47
2021/01/04 06:27:26;;;;;;;30.40;13.95;;;;;;;10.06;72.85;102297.78;1808502;79;23049;-47
2021/01/04 06:29:54;;;;;;;28.80;13.90;;;;;;;10.02;72.88;102300.35;1766379;80;21175;-47
2021/01/04 06:32:33;;;;;;;23.10;12.47;;;;;;;10.02;72.88;102310.75;1793103;80;21124;-47
2021/01/04 06:35:18;;;;;;;22.80;12.45;;;;;;;10.01;72.91;102313.81;1792944;80;21136;-46
2021/01/04 06:37:47;;;;;;;25.55;13.18;;;;;;;10.03;72.88;102313.81;1789842;80;21167;-47
2021/01/04 06:40:32;;;;;;;22.87;12.60;;;;;;;10.05;72.90;102317.28;1792978;80;21152;-47
2021/01/04 06:43:21;;;;;;;24.85;12.82;;;;;;;10.05;72.89;102318.59;1788652;80;21612;-46
2021/01/04 06:46:30;;;;;;;22.15;12.00;;;;;;;10.04;72.85;102319.43;1788865;80;21125;-46
2021/01/04 06:49:24;;;;;;;28.32;14.05;;;;;;;10.05;72.81;102319.47;1789961;80;21171;-47
2021/01/04 06:52:35;;;;;;;22.40;11.25;;;;;;;10.06;72.75;102318.59;1772568;80;21129;-47
2021/01/04 06:55:29;;;;;;;22.37;11.90;;;;;;;10.03;72.72;102319.01;1718110;83;21180;-46
2021/01/04 06:58:56;;;;;;;19.80;11.83;;;;;;;9.97;72.99;102322.45;1709758;83;21752;-46
2021/01/04 07:01:45;;;;;;;22.30;11.00;;;;;;;9.96;72.97;102323.72;1719935;83;21252;-46
2021/01/04 07:05:05;;;;;;;22.90;11.03;;;;;;;9.98;73.01;102314.20;1715450;83;21198;-46
2021/01/04 07:07:54;;;;;;;28.10;11.88;;;;;;;9.97;73.03;102311.18;1719267;83;21165;-46
2021/01/04 07:10:58;;;;;;;20.08;10.40;;;;;;;9.97;73.14;102315.08;1713605;83;21332;-47
2021/01/04 07:13:50;;;;;;;24.00;11.03;;;;;;;10.00;73.05;102311.17;1718157;83;21208;-46
2021/01/04 07:16:36;;;;;;;23.27;10.25;;;;;;;10.02;73.05;102318.55;1715828;83;21326;-47
2021/01/04 07:19:21;;;;;;;20.23;10.28;;;;;;;10.04;73.13;102327.23;1718158;83;21154;-47
2021/01/04 07:22:09;;;;;;;26.62;10.40;;;;;;;10.11;73.05;102315.63;1771707;79;23110;-47
2021/01/04 07:25:15;;;;;;;24.57;10.38;;;;;;;10.11;72.88;102321.25;1726368;82;21177;-47
2021/01/04 07:28:19;;;;;;;23.15;10.28;;;;;;;10.11;72.84;102327.33;1736210;82;21184;-48
2021/01/04 07:31:12;;;;;;;23.07;10.93;;;;;;;10.12;72.82;102323.84;1664787;86;21159;-47
2021/01/04 07:34:00;;;;;;;25.12;10.55;;;;;;;10.19;72.64;102319.55;1813074;79;22976;-46
2021/01/04 07:36:55;;;;;;;24.43;10.65;;;;;;;10.16;72.52;102313.05;1772446;80;21220;-47
2021/01/04 07:39:37;;;;;;;21.57;9.65;;;;;;;10.11;72.65;102305.64;1744026;81;21265;-46
2021/01/04 07:42:31;;;;;;;19.17;9.83;;;;;;;10.17;72.47;102306.97;1741042;82;21705;-47
2021/01/04 07:45:25;;;;;;;26.02;11.60;;;;;;;10.19;72.36;102314.34;1732591;82;21129;-47
2021/01/04 07:48:28;;;;;;;22.75;10.60;;;;;;;10.20;72.28;102305.70;1737664;82;21158;-47
2021/01/04 07:51:33;;;;;;;18.30;9.85;;;;;;;10.22;72.26;102298.77;1771529;79;23102;-47
2021/01/04 07:54:28;;;;;;;17.27;8.95;;;;;;;10.08;72.57;102309.48;1741731;82;21279;-46
2021/01/04 07:57:36;;;;;;;22.25;10.63;;;;;;;10.13;72.29;102305.22;1722911;82;21159;-48
2021/01/04 08:00:45;;;;;;;21.27;10.15;;;;;;;10.11;72.38;102303.92;1730004;82;21168;-47
2021/01/04 08:03:22;;;;;;;15.93;9.10;;;;;;;10.12;72.42;102307.40;1727912;82;21164;-47
2021/01/04 08:06:33;;;;;;;22.00;10.75;;;;;;;10.11;72.47;102300.44;1722906;82;21184;-47
2021/01/04 08:09:15;;;;;;;21.93;9.33;;;;;;;10.09;72.58;102296.93;1727883;82;21305;-46
2021/01/04 08:12:26;;;;;;;22.73;9.93;;;;;;;10.11;72.39;102300.44;1650123;86;21231;-47
2021/01/04 08:15:22;;;;;;;19.57;8.95;;;;;;;10.09;72.59;102287.83;1631058;88;21326;-47
2021/01/04 08:18:03;;;;;;;22.77;10.08;;;;;;;10.17;72.34;102288.77;1661244;86;21668;-47
2021/01/04 08:20:32;;;;;;;17.00;9.70;;;;;;;10.17;72.16;102287.46;1631354;88;21353;-46
2021/01/04 08:23:35;;;;;;;19.62;9.78;;;;;;;10.14;72.02;102296.11;1631167;88;21180;-46
2021/01/04 08:26:37;;;;;;;22.70;10.30;;;;;;;10.10;72.26;102290.88;1659613;86;21390;-47
2021/01/04 08:29:20;;;;;;;19.12;10.28;;;;;;;10.10;72.30;102281.36;1661130;86;21179;-47
2021/01/04 08:32:30;;;;;;;19.48;10.58;;;;;;;10.14;72.21;102280.51;1656628;86;21343;-47
2021/01/04 08:35:16;;;;;;;18.60;9.63;;;;;;;10.16;72.08;102283.98;1661140;86;21168;-47
2021/01/04 08:37:50;;;;;;;19.90;10.43;;;;;;;10.22;72.07;102277.96;1770069;79;22948;-47
2021/01/04 08:40:32;;;;;;;24.92;10.65;;;;;;;10.17;72.01;102284.86;1740276;82;21141;-47
2021/01/04 08:43:07;;;;;;;23.95;11.03;;;;;;;10.17;72.09;102284.86;1744659;82;21149;-46
2021/01/04 08:45:45;;;;;;;21.33;10.88;;;;;;;10.21;72.03;102284.01;1651766;85;21145;-47
2021/01/04 08:48:24;;;;;;;19.92;10.75;;;;;;;10.19;71.94;102288.34;1640670;86;21201;-47
2021/01/04 08:51:28;;;;;;;24.87;10.90;;;;;;;10.24;71.87;102276.23;1771493;79;23099;-46
2021/01/04 08:54:03;;;;;;;19.75;11.40;;;;;;;10.21;71.95;102278.80;1742032;82;21614;-46
2021/01/04 08:56:35;;;;;;;21.37;11.33;;;;;;;10.22;71.87;102271.45;1741176;82;21311;-47
2021/01/04 08:59:10;;;;;;;23.07;11.33;;;;;;;10.24;71.78;102276.23;1659330;85;21197;-46
2021/01/04 09:01:59;;;;;;;22.73;12.05;;;;;;;10.23;71.73;102280.56;1658060;86;21248;-47
2021/01/04 09:04:38;;;;;;;23.07;12.03;;;;;;;10.24;71.74;102273.63;1661531;86;21221;-47
2021/01/04 09:07:21;;;;;;;23.77;12.82;;;;;;;10.23;71.81;102274.48;1659077;86;21577;-47
2021/01/04 09:09:55;;;;;;;24.20;11.35;;;;;;;10.22;71.85;102268.40;1658930;86;21148;-46
2021/01/04 09:12:45;;;;;;;24.20;11.20;;;;;;;10.24;71.72;102267.13;1631600;87;21188;-47
2021/01/04 09:15:23;;;;;;;21.02;11.78;;;;;;;10.24;71.69;102254.13;1659054;86;21169;-47
2021/01/04 09:18:04;;;;;;;22.27;11.90;;;;;;;10.23;71.69;102248.47;1631674;87;21640;-47
2021/01/04 09:20:40;;;;;;;19.25;11.15;;;;;;;10.23;71.76;102239.36;1659199;86;21153;-46
2021/01/04 09:23:13;;;;;;;21.75;11.20;;;;;;;10.25;71.87;102241.53;1656707;86;21201;-47
2021/01/04 09:25:52;;;;;;;24.05;10.90;;;;;;;10.28;71.77;102242.86;1658797;86;21608;-46
2021/01/04 09:28:25;;;;;;;22.52;10.98;;;;;;;10.35;71.56;102247.20;1809333;79;22962;-46
2021/01/04 09:30:54;;;;;;;20.35;9.68;;;;;;;10.30;71.52;102241.13;1769654;80;21164;-47
2021/01/04 09:33:24;;;;;;;20.23;10.65;;;;;;;10.28;71.57;102241.56;1774749;80;21163;-47
2021/01/04 09:36:02;;;;;;;22.75;9.38;;;;;;;10.27;71.60;102232.00;1777189;80;21747;-47
2021/01/04 09:38:32;;;;;;;26.57;11.60;;;;;;;10.27;71.64;102222.47;1777758;80;21671;-47
2021/01/04 09:41:04;;;;;;;32.80;15.78;;;;;;;10.27;71.67;102221.59;1778686;80;21168;-47
2021/01/04 09:43:34;;;;;;;;;;;;;;;10.28;71.61;102220.75;1782498;80;21128;-46
2021/01/04 09:46:47;;;;;;;19.05;11.20;;;;;;;10.31;71.69;102218.13;1780116;80;20411;-47
2021/01/04 09:49:20;;;;;;;20.12;10.43;;;;;;;10.32;71.68;102211.66;1784522;80;21180;-47
2021/01/04 09:51:53;;;;;;;17.75;10.55;;;;;;;10.31;71.55;102211.20;1777565;80;21648;-47
2021/01/04 09:54:25;;;;;;;24.65;10.82;;;;;;;10.29;71.46;102202.53;1711995;83;21173;-47
2021/01/04 09:57:01;;;;;;;17.50;9.85;;;;;;;10.26;71.73;102198.61;1771548;79;23134;-47
2021/01/04 09:59:30;;;;;;;20.00;9.85;;;;;;;10.22;71.74;102196.02;1730954;80;21178;-47
2021/01/04 10:02:00;;;;;;;20.50;10.70;;;;;;;10.20;71.74;102197.75;1734904;82;21168;-46
2021/01/04 10:04:43;;;;;;;20.97;10.90;;;;;;;10.16;71.88;102192.10;1743235;82;21530;-47
2021/01/04 10:07:20;;;;;;;18.17;10.80;;;;;;;10.16;71.92;102186.44;1733937;82;21192;-47
2021/01/04 10:09:51;;;;;;;18.48;10.58;;;;;;;10.19;71.98;102189.48;1698956;83;21184;-47
2021/01/04 10:12:23;;;;;;;16.10;10.00;;;;;;;10.23;72.00;102192.11;1701533;83;21145;-47
2021/01/04 10:14:57;;;;;;;19.35;11.68;;;;;;;10.27;71.93;102198.18;1695613;83;21168;-46
2021/01/04 10:17:36;;;;;;;23.65;10.82;;;;;;;10.35;71.84;102192.55;1771594;79;23295;-47
2021/01/04 10:20:18;;;;;;;23.85;11.53;;;;;;;10.34;71.75;102193.44;1727987;82;21294;-47
2021/01/04 10:22:47;;;;;;;20.40;11.08;;;;;;;10.35;71.79;102188.66;1739220;82;21144;-47
2021/01/04 10:25:29;;;;;;;18.85;10.65;;;;;;;10.35;71.83;102191.25;1734533;82;21156;-47
2021/01/04 10:28:03;;;;;;;20.40;12.95;;;;;;;10.40;71.68;102190.84;1809704;79;22917;-46
2021/01/04 10:30:31;;;;;;;25.15;12.60;;;;;;;10.35;71.67;102197.34;1771655;80;21314;-46
2021/01/04 10:33:22;;;;;;;26.15;12.82;;;;;;;10.32;71.61;102194.75;1776331;80;21156;-47
2021/01/04 10:36:06;;;;;;;19.50;12.03;;;;;;;10.32;71.74;102200.38;1694217;83;21233;-47
2021/01/04 10:38:43;;;;;;;19.35;10.90;;;;;;;10.35;71.84;102202.97;1771549;79;22989;-47
2021/01/04 10:41:14;;;;;;;21.40;12.55;;;;;;;10.32;71.83;102194.75;1738891;82;21160;-48
2021/01/04 10:43:42;;;;;;;24.02;12.03;;;;;;;10.34;71.83;102194.31;1743705;82;21160;-47
2021/01/04 10:46:24;;;;;;;19.25;11.25;;;;;;;10.37;71.69;102186.50;1740209;82;21160;-47
2021/01/04 10:49:00;;;;;;;21.27;11.63;;;;;;;10.39;71.64;102193.00;1687528;84;21193;-47
2021/01/04 10:51:29;;;;;;;19.67;12.35;;;;;;;10.38;71.68;102180.87;1689104;84;21721;-46
2021/01/04 10:53:57;;;;;;;21.23;11.48;;;;;;;10.38;71.68;102183.47;1688590;84;21218;-47
2021/01/04 10:56:41;;;;;;;19.52;12.05;;;;;;;10.41;71.69;102184.34;1688340;84;21144;-47
2021/01/04 10:59:31;;;;;;;19.30;10.23;;;;;;;10.42;71.52;102172.20;1673203;85;21620;-47
2021/01/04 11:02:00;;;;;;;16.42;10.65;;;;;;;10.41;71.42;102162.64;1688571;84;21168;-47
2021/01/04 11:04:29;;;;;;;19.23;10.80;;;;;;;10.41;71.45;102167.84;1681648;84;21132;-46
2021/01/04 11:07:32;;;;;;;20.97;12.65;;;;;;;10.40;71.38;102159.20;1678362;84;21758;-47
2021/01/04 11:10:22;;;;;;;19.35;11.40;;;;;;;10.38;71.40;102157.45;1670398;85;21184;-47
2021/01/04 11:12:56;;;;;;;24.57;12.68;;;;;;;10.33;71.51;102148.76;1691576;84;21223;-47
2021/01/04 11:15:36;;;;;;;24.05;11.88;;;;;;;10.32;71.64;102149.64;1685355;84;21167;-47
2021/01/04 11:18:12;;;;;;;25.17;14.20;;;;;;;10.34;71.72;102153.11;1794903;79;28611;-47
2021/01/04 11:20:41;;;;;;;18.55;10.60;;;;;;;10.31;71.73;102147.89;1786760;80;21220;-47
2021/01/04 11:23:13;;;;;;;20.35;10.93;;;;;;;10.36;71.65;102151.38;1725197;83;21158;-47
2021/01/04 11:25:44;;;;;;;20.17;11.45;;;;;;;10.36;71.74;102147.05;1676177;84;21160;-46
2021/01/04 11:28:13;;;;;;;16.25;11.22;;;;;;;10.37;71.79;102150.50;1679054;85;21632;-46
2021/01/04 11:30:43;;;;;;;24.53;11.90;;;;;;;10.38;71.83;102154.85;1670022;85;21183;-47
2021/01/04 11:33:15;;;;;;;22.13;12.30;;;;;;;10.39;71.70;102151.36;1676095;85;21175;-47
2021/01/04 11:35:43;;;;;;;14.38;10.65;;;;;;;10.39;71.64;102153.97;1677500;85;21175;-47
2021/01/04 11:38:11;;;;;;;26.25;13.15;;;;;;;10.36;71.65;102149.66;1675868;85;21716;-47
2021/01/04 11:40:40;;;;;;;19.75;10.28;;;;;;;10.36;71.78;102148.78;1678178;85;21377;-47
2021/01/04 11:43:09;;;;;;;20.50;11.65;;;;;;;10.37;71.86;102143.98;1678118;85;21266;-47
2021/01/04 11:45:37;;;;;;;21.85;12.45;;;;;;;10.37;71.80;102136.19;1677691;85;21488;-47
2021/01/04 11:48:07;;;;;;;21.48;12.40;;;;;;;10.36;71.83;102137.95;1652248;86;21211;-46
2021/01/04 11:50:35;;;;;;;29.82;14.10;;;;;;;10.36;71.80;102138.37;1678479;85;21184;-47
2021/01/04 11:53:04;;;;;;;19.92;11.65;;;;;;;10.34;71.75;102134.90;1677077;85;21335;-47
2021/01/04 11:55:32;;;;;;;24.57;13.45;;;;;;;10.30;71.99;102140.97;1676764;85;21140;-47
2021/01/04 11:58:01;;;;;;;23.92;11.75;;;;;;;10.30;71.99;102146.17;1676896;85;21175;-47
2021/01/04 12:00:30;;;;;;;23.18;13.68;;;;;;;10.12;72.51;102142.23;1677592;85;21345;-47
2021/01/04 12:02:58;;;;;;;25.65;13.88;;;;;;;10.25;72.08;102151.78;1678350;85;21763;-47
2021/01/04 12:05:27;;;;;;;28.20;13.53;;;;;;;10.27;72.02;102150.92;1678191;85;21203;-47
2021/01/04 12:07:56;;;;;;;24.70;13.50;;;;;;;10.29;72.03;102141.81;1671295;85;21220;-47
2021/01/04 12:10:25;;;;;;;28.70;13.25;;;;;;;10.30;72.09;102140.97;1677340;85;21457;-47
2021/01/04 12:12:55;;;;;;;23.20;13.43;;;;;;;10.30;72.08;102140.97;1677725;85;21156;-47
2021/01/04 12:15:24;;;;;;;25.50;13.15;;;;;;;10.30;72.01;102133.16;1676021;85;21188;-47
2021/01/04 12:17:52;;;;;;;22.37;13.70;;;;;;;10.30;71.92;102138.36;1683251;84;21185;-47
2021/01/04 12:20:22;;;;;;;24.18;13.32;;;;;;;10.14;72.57;102145.25;1683592;85;21185;-47
2021/01/04 12:22:51;;;;;;;21.10;13.25;;;;;;;10.25;72.21;102133.57;1751926;80;21160;-47
2021/01/04 12:25:20;;;;;;;25.15;14.60;;;;;;;10.26;72.20;102134.02;1772150;80;21294;-47
2021/01/04 12:27:50;;;;;;;25.77;13.38;;;;;;;10.27;72.08;102146.15;1780129;80;21274;-47